Time;durP1;ratioP1;P1;durP2;ratioP2;P2;SDS_P1;SDS_P2;PMS_P1;PMS_P2;Temp;Humidity;BMP_temperature;BMP_pressure;BME280_temperature;BME280_humidity;BME280_pressure;Samples;Min_cycle;Max_cycle;Signal;HPM_P1;HPM_P2
2022/11/30 00:02:13;;;;;;;;;;;;;;;25.01;45.39;94251.69;5001601;28;7108;-61
2022/11/30 00:05:17;;;;;;;;;;;;;;;25.01;44.66;94246.19;4928039;28;7580;-61
2022/11/30 00:07:55;;;;;;;;;;;;;;;25.02;45.75;94250.44;4902138;29;7252;-61
2022/11/30 00:10:24;;;;;;;;;;;;;;;25.02;44.96;94242.16;4875560;29;8699;-61
2022/11/30 00:13:01;;;;;;;;;;;;;;;24.99;44.89;94238.44;4893772;29;9227;-61
2022/11/30 00:15:41;;;;;;;;;;;;;;;25.00;45.48;94237.19;4900824;29;9051;-61
2022/11/30 00:18:15;;;;;;;;;;;;;;;25.00;45.19;94237.19;4905913;29;9617;-61
2022/11/30 00:20:58;;;;;;;;;;;;;;;24.99;45.69;94234.94;4881601;29;9410;-61
2022/11/30 00:24:00;;;;;;;;;;;;;;;25.01;45.75;94243.44;4896784;29;9032;-61
2022/11/30 00:26:26;;;;;;;;;;;;;;;24.99;45.49;94240.47;4862293;29;8250;-61
2022/11/30 00:28:52;;;;;;;;;;;;;;;24.98;44.82;94247.19;4858612;29;7032;-61
2022/11/30 00:31:18;;;;;;;;;;;;;;;25.01;44.75;94246.19;4852267;29;7282;-61
2022/11/30 00:33:45;;;;;;;;;;;;;;;25.01;45.69;94237.94;4860979;29;9053;-61
2022/11/30 00:36:14;;;;;;;;;;;;;;;24.99;45.08;94237.72;4845178;29;9206;-61
2022/11/30 00:38:43;;;;;;;;;;;;;;;25.00;44.86;94239.19;4867297;29;9431;-61
2022/11/30 00:41:20;;;;;;;;;;;;;;;25.00;45.51;94231.69;4913063;29;9650;-61
2022/11/30 00:43:46;;;;;;;;;;;;;;;25.00;44.87;94234.44;4918169;28;9489;-61
2022/11/30 00:46:23;;;;;;;;;;;;;;;25.00;44.99;94230.94;4934225;29;7445;-61
2022/11/30 00:48:50;;;;;;;;;;;;;;;25.01;45.06;94237.94;4931774;29;8793;-61
2022/11/30 00:51:19;;;;;;;;;;;;;;;25.00;45.34;94239.94;4907185;29;8427;-61
2022/11/30 00:53:54;;;;;;;;;;;;;;;25.00;45.04;94236.44;4915405;28;7041;-61
2022/11/30 00:56:20;;;;;;;;;;;;;;;24.99;45.33;94232.94;4913572;29;7002;-61
2022/11/30 00:58:50;;;;;;;;;;;;;;;25.00;44.94;94237.19;4914352;29;7256;-61
2022/11/30 01:01:16;;;;;;;;;;;;;;;25.00;45.55;94241.94;4980851;28;9248;-61
2022/11/30 01:03:45;;;;;;;;;;;;;;;25.00;45.69;94239.19;4981382;28;7275;-61
2022/11/30 01:06:13;;;;;;;;;;;;;;;25.01;44.71;94240.69;4982578;28;7043;-61
2022/11/30 01:08:39;;;;;;;;;;;;;;;25.00;44.85;94237.19;4979715;28;9173;-61
2022/11/30 01:11:13;;;;;;;;;;;;;;;24.98;45.18;94238.94;4994737;28;7600;-61
2022/11/30 01:13:40;;;;;;;;;;;;;;;25.01;45.02;94237.94;4975178;28;8992;-61
2022/11/30 01:16:16;;;;;;;;;;;;;;;25.00;45.31;94242.69;4989288;28;7400;-61
2022/11/30 01:18:43;;;;;;;;;;;;;;;25.01;45.11;94235.91;4978124;28;7119;-61
2022/11/30 01:21:19;;;;;;;;;;;;;;;25.01;44.90;94244.16;4979312;28;7257;-61
2022/11/30 01:23:51;;;;;;;;;;;;;;;25.01;45.51;94240.69;4975793;28;9027;-61
2022/11/30 01:26:24;;;;;;;;;;;;;;;25.01;45.09;94246.19;4988401;28;7076;-61
2022/11/30 01:28:55;;;;;;;;;;;;;;;25.01;44.87;94244.16;4999128;28;7066;-61
2022/11/30 01:31:22;;;;;;;;;;;;;;;25.01;45.37;94243.44;4982162;28;7204;-61
2022/11/30 01:33:54;;;;;;;;;;;;;;;25.01;44.85;94243.44;4987048;28;9072;-61
2022/11/30 01:36:25;;;;;;;;;;;;;;;25.02;45.17;94247.66;4999170;28;9385;-61
2022/11/30 01:38:58;;;;;;;;;;;;;;;25.00;45.31;94242.69;4987803;28;7669;-61
2022/11/30 01:41:34;;;;;;;;;;;;;;;25.01;44.72;94251.69;4976221;28;7357;-61
2022/11/30 01:44:15;;;;;;;;;;;;;;;25.02;44.88;94250.44;4980353;28;9342;-61
2022/11/30 01:47:19;;;;;;;;;;;;;;;25.02;45.30;94247.66;4985589;28;7043;-61
2022/11/30 01:50:03;;;;;;;;;;;;;;;25.01;45.21;94251.69;4914042;29;8627;-61
2022/11/30 01:52:36;;;;;;;;;;;;;;;25.01;45.14;94252.41;4908926;29;7064;-61
2022/11/30 01:55:38;;;;;;;;;;;;;;;25.01;45.59;94246.19;4896266;29;7410;-61
2022/11/30 01:58:26;;;;;;;;;;;;;;;25.02;44.83;94255.94;4914020;29;7066;-61
2022/11/30 02:01:10;;;;;;;;;;;;;;;25.01;44.72;94255.19;4918381;29;7255;-61
2022/11/30 02:04:10;;;;;;;;;;;;;;;25.00;44.78;94253.69;4895687;29;8117;-61
2022/11/30 02:06:36;;;;;;;;;;;;;;;24.99;45.17;94260.44;4895947;29;7117;-61
2022/11/30 02:09:03;;;;;;;;;;;;;;;25.00;45.52;94252.94;4896223;29;7264;-61
2022/11/30 02:11:29;;;;;;;;;;;;;;;24.99;44.73;94251.47;4914277;29;7016;-61
2022/11/30 02:14:13;;;;;;;;;;;;;;;25.00;44.71;94261.94;4911120;29;7061;-61
2022/11/30 02:17:04;;;;;;;;;;;;;;;25.01;45.59;94257.19;4912737;29;7052;-61
2022/11/30 02:19:55;;;;;;;;;;;;;;;25.00;45.57;94261.19;4912422;29;7849;-61
2022/11/30 02:22:46;;;;;;;;;;;;;;;25.00;44.74;94259.19;4890201;29;8028;-61
2022/11/30 02:25:21;;;;;;;;;;;;;;;25.00;44.86;94258.44;4991204;28;9050;-61
2022/11/30 02:28:35;;;;;;;;;;;;;;;24.99;44.95;94254.94;4989060;28;9274;-61
2022/11/30 02:31:12;;;;;;;;;;;;;;;25.00;44.86;94255.69;4932541;29;9669;-61
2022/11/30 02:33:44;;;;;;;;;;;;;;;24.98;45.41;94264.47;4928147;29;7134;-61
2022/11/30 02:36:10;;;;;;;;;;;;;;;24.98;45.15;94253.47;4916552;29;7430;-61
2022/11/30 02:38:48;;;;;;;;;;;;;;;24.98;44.87;94258.97;4917397;29;7295;-62
2022/11/30 02:41:33;;;;;;;;;;;;;;;24.98;45.39;94258.97;4927107;29;8282;-61
2022/11/30 02:44:12;;;;;;;;;;;;;;;24.97;45.21;94257.47;4919339;29;7033;-61
2022/11/30 02:47:20;;;;;;;;;;;;;;;24.99;45.12;94262.47;4926035;29;7294;-61
2022/11/30 02:50:37;;;;;;;;;;;;;;;24.99;44.70;94262.47;4884689;29;9055;-61
2022/11/30 02:53:20;;;;;;;;;;;;;;;24.99;44.73;94259.72;4878803;29;7054;-61
2022/11/30 02:55:55;;;;;;;;;;;;;;;24.98;44.85;94252.72;4871330;29;7285;-62
2022/11/30 02:58:34;;;;;;;;;;;;;;;24.97;44.83;94251.94;4879390;29;9352;-61
2022/11/30 03:01:10;;;;;;;;;;;;;;;24.98;45.57;94252.72;4879797;29;8257;-61
2022/11/30 03:03:55;;;;;;;;;;;;;;;25.00;45.53;94259.19;4875289;29;7027;-61
2022/11/30 03:06:32;;;;;;;;;;;;;;;24.99;45.20;94254.22;4886274;28;7574;-61
2022/11/30 03:09:28;;;;;;;;;;;;;;;25.01;45.61;94254.44;4936371;28;7389;-61
2022/11/30 03:12:22;;;;;;;;;;;;;;;25.01;44.88;94257.19;4880141;29;7107;-61
2022/11/30 03:14:51;;;;;;;;;;;;;;;25.01;44.69;94254.44;4861976;29;7118;-61
2022/11/30 03:17:49;;;;;;;;;;;;;;;25.01;44.88;94257.19;4879600;29;7249;-61
2022/11/30 03:20:26;;;;;;;;;;;;;;;24.99;44.86;94260.44;4897535;29;9832;-61
2022/11/30 03:22:53;;;;;;;;;;;;;;;25.00;45.03;94253.69;4922778;29;8948;-61
2022/11/30 03:25:20;;;;;;;;;;;;;;;25.00;45.04;94259.19;4914273;29;7014;-61
2022/11/30 03:27:59;;;;;;;;;;;;;;;25.01;45.23;94265.47;4910399;29;9428;-61
2022/11/30 03:30:25;;;;;;;;;;;;;;;25.00;45.21;94261.19;4935144;29;7527;-61
2022/11/30 03:32:51;;;;;;;;;;;;;;;24.99;44.60;94260.44;4912720;29;9027;-60
2022/11/30 03:35:20;;;;;;;;;;;;;;;25.01;44.88;94262.72;4907832;29;8465;-61
2022/11/30 03:37:49;;;;;;;;;;;;;;;24.99;44.96;94262.47;4911724;29;7379;-60
2022/11/30 03:40:15;;;;;;;;;;;;;;;25.00;45.36;94266.69;4909767;29;7018;-61
2022/11/30 03:42:51;;;;;;;;;;;;;;;25.01;45.02;94255.19;4926472;29;7231;-61
2022/11/30 03:45:54;;;;;;;;;;;;;;;25.02;44.81;94264.19;4921200;29;7124;-61
2022/11/30 03:48:23;;;;;;;;;;;;;;;25.03;45.21;94271.19;4897211;29;7041;-61
2022/11/30 03:51:04;;;;;;;;;;;;;;;25.02;45.13;94270.44;4914445;29;7029;-61
2022/11/30 03:53:50;;;;;;;;;;;;;;;25.01;44.53;94259.94;4934970;29;7457;-61
2022/11/30 03:56:16;;;;;;;;;;;;;;;25.00;45.14;94256.44;4928731;29;7010;-61
2022/11/30 03:58:44;;;;;;;;;;;;;;;25.01;45.27;94259.94;4931388;29;7248;-61
2022/11/30 04:01:22;;;;;;;;;;;;;;;25.01;45.25;94262.72;4933543;29;9121;-61
2022/11/30 04:03:51;;;;;;;;;;;;;;;25.01;44.99;94268.22;4934233;29;8462;-61
2022/11/30 04:06:18;;;;;;;;;;;;;;;25.01;45.50;94265.47;4950700;28;8571;-61
2022/11/30 04:08:47;;;;;;;;;;;;;;;25.00;44.70;94261.19;4932849;29;7232;-61
2022/11/30 04:11:43;;;;;;;;;;;;;;;25.00;45.13;94256.44;4916073;29;8294;-61
2022/11/30 04:14:22;;;;;;;;;;;;;;;24.99;44.99;94260.44;4881875;29;8982;-61
2022/11/30 04:16:59;;;;;;;;;;;;;;;24.98;45.24;94256.22;4881685;29;7175;-61
2022/11/30 04:19:34;;;;;;;;;;;;;;;24.99;45.29;94265.22;4882347;29;7127;-61
2022/11/30 04:22:09;;;;;;;;;;;;;;;24.98;45.33;94267.22;4894793;29;7408;-61
2022/11/30 04:24:51;;;;;;;;;;;;;;;24.99;44.66;94265.22;4937945;28;9092;-61
2022/11/30 04:27:19;;;;;;;;;;;;;;;24.98;44.95;94266.47;4933482;29;7221;-61
2022/11/30 04:29:45;;;;;;;;;;;;;;;24.98;45.14;94266.47;4932794;28;7227;-61
2022/11/30 04:32:13;;;;;;;;;;;;;;;24.98;45.36;94258.22;4954128;28;7200;-61
2022/11/30 04:34:39;;;;;;;;;;;;;;;24.99;44.80;94265.22;4936825;28;7105;-61
2022/11/30 04:37:05;;;;;;;;;;;;;;;24.97;45.37;94254.69;4937108;28;7416;-61
2022/11/30 04:39:34;;;;;;;;;;;;;;;24.97;45.02;94259.47;4938460;28;7165;-61
2022/11/30 04:42:00;;;;;;;;;;;;;;;24.98;44.71;94261.72;4953680;28;9061;-61
2022/11/30 04:44:39;;;;;;;;;;;;;;;24.98;44.66;94258.97;4937991;28;7294;-61
2022/11/30 04:47:39;;;;;;;;;;;;;;;24.98;45.21;94253.47;4953560;28;7219;-61
2022/11/30 04:50:07;;;;;;;;;;;;;;;24.99;45.16;94251.47;4966479;28;8789;-61
2022/11/30 04:52:40;;;;;;;;;;;;;;;24.97;44.89;94251.94;4992825;28;7204;-61
2022/11/30 04:55:09;;;;;;;;;;;;;;;24.99;45.16;94252.19;4988375;28;7046;-61
2022/11/30 04:57:44;;;;;;;;;;;;;;;25.00;45.05;94250.19;4982171;28;7052;-60
2022/11/30 05:00:11;;;;;;;;;;;;;;;24.98;44.85;94255.47;4982797;28;7245;-61
2022/11/30 05:02:37;;;;;;;;;;;;;;;24.99;44.70;94252.19;4991008;28;7256;-61
2022/11/30 05:05:06;;;;;;;;;;;;;;;24.99;45.33;94248.72;4984471;28;9050;-61
2022/11/30 05:07:33;;;;;;;;;;;;;;;24.99;44.72;94248.72;4980484;28;7101;-61
2022/11/30 05:10:06;;;;;;;;;;;;;;;24.99;44.90;94249.44;5000848;28;7031;-61
2022/11/30 05:12:34;;;;;;;;;;;;;;;25.00;44.30;94250.94;4989139;28;7039;-61
2022/11/30 05:15:09;;;;;;;;;;;;;;;25.01;44.87;94251.69;5003223;28;9624;-60
2022/11/30 05:17:52;;;;;;;;;;;;;;;25.00;44.91;94250.19;4984573;28;9472;-61
2022/11/30 05:20:24;;;;;;;;;;;;;;;25.00;45.17;94258.44;4990571;28;7065;-61
2022/11/30 05:22:51;;;;;;;;;;;;;;;24.99;44.78;94254.22;4992192;28;7908;-61
2022/11/30 05:25:18;;;;;;;;;;;;;;;25.01;44.71;94263.44;4996411;28;7050;-61
2022/11/30 05:27:45;;;;;;;;;;;;;;;25.00;44.58;94250.19;4987072;28;9653;-61
2022/11/30 05:30:12;;;;;;;;;;;;;;;25.00;44.96;94245.44;4979734;28;7348;-61
2022/11/30 05:32:38;;;;;;;;;;;;;;;25.01;45.36;94254.44;4973970;28;9407;-61
2022/11/30 05:35:06;;;;;;;;;;;;;;;25.00;44.98;94261.19;4986624;28;7574;-60
2022/11/30 05:37:40;;;;;;;;;;;;;;;25.00;44.59;94255.69;5005342;28;7487;-61
2022/11/30 05:40:19;;;;;;;;;;;;;;;25.02;45.27;94253.19;4978763;28;7123;-61
2022/11/30 05:42:54;;;;;;;;;;;;;;;25.01;44.92;94257.19;4993469;28;7276;-61
2022/11/30 05:45:30;;;;;;;;;;;;;;;25.00;45.16;94252.94;4988672;28;7187;-61
2022/11/30 05:47:57;;;;;;;;;;;;;;;25.03;45.49;94260.19;4988470;28;7041;-61
2022/11/30 05:50:26;;;;;;;;;;;;;;;25.03;45.66;94260.19;4985021;28;7278;-61
2022/11/30 05:53:03;;;;;;;;;;;;;;;25.03;44.89;94260.19;4989964;28;7306;-61
2022/11/30 05:55:31;;;;;;;;;;;;;;;25.03;44.00;94260.94;4991017;28;7007;-61
2022/11/30 05:58:05;;;;;;;;;;;;;;;25.06;43.95;94264.66;4980474;28;9440;-61
2022/11/30 06:00:34;;;;;;;;;;;;;;;25.14;43.85;94265.63;4994350;28;8427;-60
2022/11/30 06:03:05;;;;;;;;;;;;;;;25.19;44.84;94259.31;4984440;28;6982;-60
2022/11/30 06:05:33;;;;;;;;;;;;;;;25.21;43.90;94259.53;4992363;28;7152;-61
2022/11/30 06:08:05;;;;;;;;;;;;;;;25.23;44.16;94263.28;4990209;28;7065;-61
2022/11/30 06:10:35;;;;;;;;;;;;;;;25.25;44.11;94254.53;4982960;28;7240;-60
2022/11/30 06:13:34;;;;;;;;;;;;;;;25.25;44.00;94257.28;4993503;28;7229;-61
2022/11/30 06:16:04;;;;;;;;;;;;;;;25.27;43.47;94257.53;4968296;28;7305;-61
2022/11/30 06:18:47;;;;;;;;;;;;;;;25.28;43.90;94248.00;4966018;28;7327;-61
2022/11/30 06:21:22;;;;;;;;;;;;;;;25.31;43.38;94258.00;4964873;28;7020;-61
2022/11/30 06:23:48;;;;;;;;;;;;;;;25.32;42.88;94254.72;4942887;28;7267;-61
2022/11/30 06:26:14;;;;;;;;;;;;;;;25.32;43.38;94260.22;4966009;28;9428;-61
2022/11/30 06:28:49;;;;;;;;;;;;;;;25.34;43.12;94262.47;4966413;28;7369;-60
2022/11/30 06:31:15;;;;;;;;;;;;;;;25.39;43.07;94258.91;4969467;28;6903;-60
2022/11/30 06:33:42;;;;;;;;;;;;;;;25.38;42.45;94257.44;4967995;28;7421;-60
2022/11/30 06:36:25;;;;;;;;;;;;;;;25.34;42.03;94259.69;4965862;28;8944;-61
2022/11/30 06:39:21;;;;;;;;;;;;;;;25.31;42.29;94263.50;4964873;28;7501;-60
2022/11/30 06:41:55;;;;;;;;;;;;;;;25.26;42.31;94265.03;4952571;28;7130;-61
2022/11/30 06:44:21;;;;;;;;;;;;;;;25.26;42.83;94264.28;4968163;28;7047;-61
2022/11/30 06:46:49;;;;;;;;;;;;;;;25.26;42.46;94264.28;4967458;28;7524;-61
2022/11/30 06:49:27;;;;;;;;;;;;;;;25.26;42.85;94256.03;4969105;28;7050;-61
2022/11/30 06:51:57;;;;;;;;;;;;;;;25.22;42.47;94259.06;4983856;28;7471;-61
2022/11/30 06:54:23;;;;;;;;;;;;;;;25.23;42.83;94257.03;4989558;28;8640;-61
2022/11/30 06:56:51;;;;;;;;;;;;;;;25.22;43.04;94263.81;4989557;28;7059;-62
2022/11/30 06:59:24;;;;;;;;;;;;;;;25.22;43.76;94256.31;4995054;28;9107;-61
2022/11/30 07:01:50;;;;;;;;;;;;;;;25.21;43.57;94259.53;4965260;28;7264;-61
2022/11/30 07:04:16;;;;;;;;;;;;;;;25.17;43.38;94265.34;4982013;28;6983;-61
2022/11/30 07:06:44;;;;;;;;;;;;;;;25.19;43.96;94264.81;4981821;28;7214;-61
2022/11/30 07:09:12;;;;;;;;;;;;;;;25.19;42.70;94268.31;4988607;28;7509;-61
2022/11/30 07:11:40;;;;;;;;;;;;;;;25.17;43.64;94264.59;4994370;28;7119;-61
2022/11/30 07:14:22;;;;;;;;;;;;;;;25.15;43.08;94261.59;4984511;28;9137;-61
2022/11/30 07:17:03;;;;;;;;;;;;;;;25.20;43.27;94269.06;4984309;28;7081;-61
2022/11/30 07:19:34;;;;;;;;;;;;;;;25.21;43.31;94265.81;4983564;28;7093;-62
2022/11/30 07:22:21;;;;;;;;;;;;;;;25.23;43.12;94263.28;4985324;28;9138;-61
2022/11/30 07:27:42;;;;;;;;;;;;;;;25.17;42.90;94264.59;4987331;28;8137;-61
2022/11/30 07:30:09;;;;;;;;;;;;;;;25.13;43.59;94258.59;4975229;28;7678;-60
2022/11/30 07:32:35;;;;;;;;;;;;;;;25.13;43.48;94266.88;4988230;28;8344;-61
2022/11/30 07:35:01;;;;;;;;;;;;;;;25.12;43.64;94259.88;4984938;28;10108;-61
2022/11/30 07:37:27;;;;;;;;;;;;;;;25.12;44.00;94257.84;4982681;28;9690;-61
2022/11/30 07:39:55;;;;;;;;;;;;;;;25.15;43.70;94264.34;4988207;28;8700;-61
2022/11/30 07:42:37;;;;;;;;;;;;;;;25.16;43.80;94254.84;4997272;28;7066;-61
2022/11/30 07:45:14;;;;;;;;;;;;;;;25.17;43.65;94261.84;4984276;28;7029;-61
2022/11/30 07:47:49;;;;;;;;;;;;;;;25.17;43.82;94268.09;4988618;28;7361;-61
2022/11/30 07:50:21;;;;;;;;;;;;;;;25.19;43.92;94262.81;4984047;28;9359;-61
2022/11/30 07:53:01;;;;;;;;;;;;;;;25.23;43.68;94268.03;4986273;28;8466;-61
2022/11/30 07:55:27;;;;;;;;;;;;;;;25.25;43.97;94263.53;4979637;28;7253;-62
2022/11/30 07:58:02;;;;;;;;;;;;;;;25.27;43.81;94271.28;4997487;28;7202;-61
2022/11/30 08:00:28;;;;;;;;;;;;;;;25.29;44.36;94275.00;4983284;28;7165;-62
2022/11/30 08:03:02;;;;;;;;;;;;;;;25.31;43.99;94275.25;4984119;28;7198;-62
2022/11/30 08:05:35;;;;;;;;;;;;;;;25.34;44.70;94278.97;4984755;28;8708;-62
2022/11/30 08:08:03;;;;;;;;;;;;;;;25.33;43.35;94272.00;4988176;28;9587;-61
2022/11/30 08:10:35;;;;;;;;;;;;;;;25.31;43.44;94269.00;4980417;28;7585;-62
2022/11/30 08:13:14;;;;;;;;;;;;;;;25.27;43.99;94268.53;4989037;28;7285;-62
2022/11/30 08:15:44;;;;;;;;;;;;;;;25.19;43.61;94262.81;4989931;28;7033;-62
2022/11/30 08:18:09;;;;;;;;;;;;;;;25.21;44.07;94271.31;4991509;28;7204;-62
2022/11/30 08:20:44;;;;;;;;;;;;;;;25.21;44.67;94270.56;4984035;28;9036;-61
2022/11/30 08:23:13;;;;;;;;;;;;;;;25.20;44.42;94277.34;4983233;28;7271;-62
2022/11/30 08:25:41;;;;;;;;;;;;;;;25.20;44.06;94286.34;5008188;28;7066;-62
2022/11/30 08:28:15;;;;;;;;;;;;;;;25.20;44.41;94283.59;4993854;28;7088;-62
2022/11/30 08:30:41;;;;;;;;;;;;;;;25.19;44.29;94273.06;4995466;28;7029;-61
2022/11/30 08:33:07;;;;;;;;;;;;;;;25.21;44.65;94287.06;4988728;28;7575;-62
2022/11/30 08:35:33;;;;;;;;;;;;;;;25.20;44.96;94288.34;4982938;28;8697;-62
2022/11/30 08:38:02;;;;;;;;;;;;;;;25.19;44.99;94295.09;5006318;28;9074;-61
2022/11/30 08:40:30;;;;;;;;;;;;;;;25.18;44.40;94290.88;4998954;28;7051;-62
2022/11/30 08:43:05;;;;;;;;;;;;;;;25.19;44.66;94290.34;4976081;28;7320;-62
2022/11/30 08:45:38;;;;;;;;;;;;;;;25.23;45.19;94298.31;4983704;28;9345;-62
2022/11/30 08:48:04;;;;;;;;;;;;;;;25.27;45.08;94293.31;4991245;28;7134;-62
2022/11/30 08:50:30;;;;;;;;;;;;;;;25.30;44.76;94289.53;4980525;28;7029;-62
2022/11/30 08:52:59;;;;;;;;;;;;;;;25.32;44.00;94293.25;4989932;28;7774;-61
2022/11/30 08:55:27;;;;;;;;;;;;;;;25.28;44.11;94292.03;4981422;28;7516;-62
2022/11/30 08:57:56;;;;;;;;;;;;;;;25.28;41.13;94292.78;4978853;28;7069;-61
2022/11/30 09:00:37;;;;;;;;;;;;;;;25.28;43.95;94305.81;4982796;28;7235;-61
2022/11/30 09:03:22;;;;;;;;;;;;;;;25.30;43.57;94306.03;4977687;28;6993;-61
2022/11/30 09:06:19;;;;;;;;;;;;;;;25.31;41.54;94307.53;4988827;28;7281;-65
2022/11/30 09:08:56;;;;;;;;;;;;;;;25.30;42.96;94303.28;4983309;28;7058;-63
2022/11/30 09:11:27;;;;;;;;;;;;;;;25.30;42.49;94298.53;4991137;28;7390;-64
2022/11/30 09:13:55;;;;;;;;;;;;;;;25.26;41.93;94300.81;4985683;28;9020;-62
2022/11/30 09:17:06;;;;;;;;;;;;;;;25.23;41.88;94301.81;4990997;28;7243;-61
2022/11/30 09:19:41;;;;;;;;;;;;;;;25.21;41.44;94300.84;4909675;29;7146;-63
2022/11/30 09:22:12;;;;;;;;;;;;;;;25.19;41.38;94298.59;4901663;29;7587;-61
2022/11/30 09:24:39;;;;;;;;;;;;;;;25.21;42.69;94303.59;4923474;29;8453;-63
2022/11/30 09:27:14;;;;;;;;;;;;;;;25.20;43.37;94308.38;4917532;29;8117;-63
2022/11/30 09:29:40;;;;;;;;;;;;;;;25.24;42.69;94308.09;4923720;29;8025;-64
2022/11/30 09:32:08;;;;;;;;;;;;;;;25.25;43.41;94310.31;4912087;29;7379;-65
2022/11/30 09:34:37;;;;;;;;;;;;;;;25.25;43.89;94302.06;4910138;29;7232;-63
2022/11/30 09:37:39;;;;;;;;;;;;;;;25.31;44.36;94313.06;4929703;29;7125;-63
2022/11/30 09:40:06;;;;;;;;;;;;;;;25.35;43.39;94313.53;4909057;29;8969;-63
2022/11/30 09:42:51;;;;;;;;;;;;;;;25.36;43.90;94309.50;4923055;29;8811;-63
2022/11/30 09:45:31;;;;;;;;;;;;;;;25.29;42.73;94305.28;4928524;29;9414;-62
2022/11/30 09:48:34;;;;;;;;;;;;;;;25.28;43.37;94308.56;4925147;29;7319;-62
2022/11/30 09:51:14;;;;;;;;;;;;;;;25.27;43.83;94315.34;4909877;29;7388;-61
2022/11/30 09:53:58;;;;;;;;;;;;;;;25.30;43.84;94306.03;4928361;29;7117;-60
2022/11/30 09:56:39;;;;;;;;;;;;;;;25.30;44.36;94312.28;4955085;28;7285;-62
2022/11/30 09:59:05;;;;;;;;;;;;;;;25.31;43.90;94316.56;4997329;28;10409;-61
2022/11/30 10:01:44;;;;;;;;;;;;;;;25.32;44.03;94309.78;4989167;28;8986;-62
2022/11/30 10:04:22;;;;;;;;;;;;;;;25.34;43.68;94312.75;4987030;28;7215;-61
2022/11/30 10:07:01;;;;;;;;;;;;;;;25.30;42.85;94306.03;4982873;28;7045;-61
2022/11/30 10:09:37;;;;;;;;;;;;;;;25.25;43.81;94307.56;4979575;28;9005;-61
2022/11/30 10:12:35;;;;;;;;;;;;;;;25.26;43.19;94302.81;4984873;28;9390;-62
2022/11/30 10:15:35;;;;;;;;;;;;;;;25.21;43.18;94306.34;4941242;28;9098;-61
2022/11/30 10:18:40;;;;;;;;;;;;;;;25.17;43.94;94303.13;4930835;28;7225;-62
2022/11/30 10:21:30;;;;;;;;;;;;;;;25.16;44.14;94304.38;4894420;29;7343;-63
2022/11/30 10:24:14;;;;;;;;;;;;;;;25.15;43.90;94295.38;4900508;29;7326;-63
2022/11/30 10:26:55;;;;;;;;;;;;;;;25.17;44.01;94297.63;4892146;29;7255;-62
2022/11/30 10:29:37;;;;;;;;;;;;;;;25.16;44.72;94302.38;4875785;29;7151;-63
2022/11/30 10:32:18;;;;;;;;;;;;;;;25.16;45.09;94296.13;4890713;29;7324;-63
2022/11/30 10:34:51;;;;;;;;;;;;;;;25.20;44.43;94302.09;4879936;29;7076;-63
2022/11/30 10:37:25;;;;;;;;;;;;;;;25.17;44.93;94290.09;4889226;29;7025;-63
2022/11/30 10:40:17;;;;;;;;;;;;;;;25.17;45.08;94292.09;4893411;29;9340;-63
2022/11/30 10:42:49;;;;;;;;;;;;;;;25.16;45.34;94291.38;4885035;29;7190;-63
2022/11/30 10:45:24;;;;;;;;;;;;;;;25.17;45.03;94297.63;4891615;29;9496;-63
2022/11/30 10:48:07;;;;;;;;;;;;;;;25.17;44.86;94287.34;4880391;29;7035;-63
2022/11/30 10:50:51;;;;;;;;;;;;;;;25.18;44.77;94288.09;4892993;29;8997;-62
2022/11/30 10:53:27;;;;;;;;;;;;;;;25.18;45.36;94288.88;4908631;29;7065;-62
2022/11/30 10:56:09;;;;;;;;;;;;;;;25.15;45.17;94286.38;4910066;29;8726;-62
2022/11/30 10:59:21;;;;;;;;;;;;;;;25.14;45.51;94280.09;4956031;28;7272;-62
2022/11/30 11:01:47;;;;;;;;;;;;;;;25.16;45.35;94277.63;4948537;29;8975;-61
2022/11/30 11:04:31;;;;;;;;;;;;;;;25.15;46.00;94275.34;4944379;29;7169;-63
2022/11/30 11:07:15;;;;;;;;;;;;;;;25.16;45.50;94276.88;4950852;29;8227;-63
2022/11/30 11:09:51;;;;;;;;;;;;;;;25.17;46.40;94281.09;4933786;29;7279;-63
2022/11/30 11:12:24;;;;;;;;;;;;;;;25.17;46.52;94265.34;4936754;28;9398;-63
2022/11/30 11:15:16;;;;;;;;;;;;;;;25.19;45.97;94264.81;4935623;28;9114;-64
2022/11/30 11:17:43;;;;;;;;;;;;;;;25.20;47.53;94275.34;4927138;28;7396;-62
2022/11/30 11:20:32;;;;;;;;;;;;;;;25.19;46.95;94273.84;4935890;28;8942;-64
2022/11/30 11:23:02;;;;;;;;;;;;;;;25.21;47.04;94271.31;4949081;28;7228;-63
2022/11/30 11:25:34;;;;;;;;;;;;;;;25.21;46.38;94276.81;4945349;28;7296;-63
2022/11/30 11:28:23;;;;;;;;;;;;;;;25.24;46.89;94280.56;4933974;28;7264;-63
2022/11/30 11:30:53;;;;;;;;;;;;;;;25.24;47.11;94277.81;4931430;28;7317;-63
2022/11/30 11:33:28;;;;;;;;;;;;;;;25.26;46.38;94275.28;4951046;28;8521;-63
2022/11/30 11:36:14;;;;;;;;;;;;;;;25.28;46.26;94276.28;4960351;28;8564;-63
2022/11/30 11:38:47;;;;;;;;;;;;;;;25.31;46.47;94280.78;4981972;28;6869;-63
2022/11/30 11:41:53;;;;;;;;;;;;;;;25.32;46.51;94276.75;4984170;28;8979;-63
2022/11/30 11:44:26;;;;;;;;;;;;;;;25.28;46.52;94281.03;4945197;28;7813;-64
2022/11/30 11:47:01;;;;;;;;;;;;;;;25.25;46.00;94271.78;4933579;28;7312;-64
2022/11/30 11:49:33;;;;;;;;;;;;;;;25.29;46.30;94275.00;4947013;28;8894;-64
2022/11/30 11:52:16;;;;;;;;;;;;;;;25.27;45.57;94268.53;4932687;28;7265;-64
2022/11/30 11:55:13;;;;;;;;;;;;;;;25.32;45.52;94273.22;4944261;28;7532;-64
2022/11/30 11:57:50;;;;;;;;;;;;;;;25.28;45.29;94278.28;4937602;28;8776;-64
2022/11/30 12:00:20;;;;;;;;;;;;;;;25.30;45.14;94282.00;4921764;28;9267;-63
2022/11/30 12:03:17;;;;;;;;;;;;;;;25.32;45.28;94284.25;4937110;28;7290;-64
2022/11/30 12:06:12;;;;;;;;;;;;;;;25.32;45.90;94282.25;4934994;28;7365;-63
2022/11/30 12:09:20;;;;;;;;;;;;;;;25.26;45.83;94280.78;4858097;29;7128;-63
2022/11/30 12:11:48;;;;;;;;;;;;;;;25.27;45.39;94279.53;4840638;29;7134;-64
2022/11/30 12:14:19;;;;;;;;;;;;;;;25.28;45.04;94281.78;4840835;29;7150;-64
2022/11/30 12:16:57;;;;;;;;;;;;;;;25.27;45.79;94283.03;4857010;29;7262;-65
2022/11/30 12:19:42;;;;;;;;;;;;;;;25.27;45.94;94279.53;4896059;29;7588;-63
2022/11/30 12:22:54;;;;;;;;;;;;;;;25.26;45.27;94275.28;4897330;29;9372;-64
2022/11/30 12:25:28;;;;;;;;;;;;;;;25.33;45.08;94283.75;4910434;29;7260;-63
2022/11/30 12:28:31;;;;;;;;;;;;;;;25.33;45.61;94272.00;4897423;29;7688;-64
2022/11/30 12:31:11;;;;;;;;;;;;;;;25.30;45.18;94273.00;4858849;29;7476;-63
2022/11/30 12:34:06;;;;;;;;;;;;;;;25.30;45.92;94275.75;4858995;29;7875;-64
2022/11/30 12:36:59;;;;;;;;;;;;;;;25.27;45.54;94274.03;4843005;29;9398;-62
2022/11/30 12:39:46;;;;;;;;;;;;;;;25.25;45.47;94279.31;4854278;29;7235;-63
2022/11/30 12:42:29;;;;;;;;;;;;;;;25.28;45.73;94275.53;4858028;29;7292;-64
2022/11/30 12:45:15;;;;;;;;;;;;;;;25.26;45.46;94272.53;4861296;29;7258;-63
2022/11/30 12:48:25;;;;;;;;;;;;;;;25.28;45.56;94267.25;4941143;28;6911;-63
2022/11/30 12:51:00;;;;;;;;;;;;;;;25.31;45.83;94275.25;4919283;29;7006;-63
2022/11/30 12:53:51;;;;;;;;;;;;;;;25.35;45.46;94272.97;4939145;28;7350;-63
2022/11/30 12:56:48;;;;;;;;;;;;;;;25.38;46.29;94268.47;4916951;28;9316;-63
2022/11/30 12:59:51;;;;;;;;;;;;;;;25.41;46.24;94267.41;4922071;29;7134;-63
2022/11/30 13:02:50;;;;;;;;;;;;;;;25.40;45.71;94265.94;4922936;28;7223;-63
2022/11/30 13:05:33;;;;;;;;;;;;;;;25.39;45.12;94270.69;4976673;28;7849;-62
2022/11/30 13:08:12;;;;;;;;;;;;;;;25.44;45.95;94263.69;4984383;28;7045;-62
2022/11/30 13:10:52;;;;;;;;;;;;;;;25.47;45.26;94262.63;4991939;28;7511;-64
2022/11/30 13:13:30;;;;;;;;;;;;;;;25.48;45.16;94264.13;4984792;28;7208;-62
2022/11/30 13:16:04;;;;;;;;;;;;;;;25.45;44.94;94262.41;4985406;28;7598;-62
2022/11/30 13:18:33;;;;;;;;;;;;;;;25.48;44.93;94266.13;4980026;28;7066;-62
2022/11/30 13:21:15;;;;;;;;;;;;;;;25.50;44.30;94266.38;4988918;28;7160;-63
2022/11/30 13:24:20;;;;;;;;;;;;;;;25.47;44.37;94268.13;5001260;28;9503;-62
2022/11/30 13:27:00;;;;;;;;;;;;;;;25.49;43.25;94262.88;4983648;28;7217;-62
2022/11/30 13:29:47;;;;;;;;;;;;;;;25.47;42.70;94261.91;4985049;28;7048;-62
2022/11/30 13:32:15;;;;;;;;;;;;;;;25.47;42.25;94256.41;5006189;28;8945;-60
2022/11/30 13:34:41;;;;;;;;;;;;;;;25.46;42.87;94261.16;4990383;28;7039;-61
2022/11/30 13:37:21;;;;;;;;;;;;;;;25.45;42.87;94258.91;4988655;28;7457;-60
2022/11/30 13:39:58;;;;;;;;;;;;;;;25.43;41.91;94268.44;4988072;28;7465;-61
2022/11/30 13:42:43;;;;;;;;;;;;;;;25.43;42.15;94275.94;4980955;28;7457;-61
2022/11/30 13:45:13;;;;;;;;;;;;;;;25.43;41.75;94271.19;4978641;28;8844;-61
2022/11/30 13:47:45;;;;;;;;;;;;;;;25.42;42.32;94277.22;4982385;28;7360;-60
2022/11/30 13:50:25;;;;;;;;;;;;;;;25.40;41.86;94272.16;4987063;28;9279;-61
2022/11/30 13:53:02;;;;;;;;;;;;;;;25.38;42.72;94268.47;4984382;28;7384;-61